Time;durP1;ratioP1;P1;durP2;ratioP2;P2;SDS_P1;SDS_P2;PMS_P1;PMS_P2;Temp;Humidity;BMP_temperature;BMP_pressure;BME280_temperature;BME280_humidity;BME280_pressure;Samples;Min_cycle;Max_cycle;Signal;HPM_P1;HPM_P2
2021/03/02 05:52:56;;;;;;;36.10;20.47;;;;;;;1.34;100.00;99772.44;1694181;84;21687;-52
2021/03/02 05:55:26;;;;;;;44.10;24.17;;;;;;;1.40;100.00;99773.22;1687814;84;21166;-50
2021/03/02 05:57:56;;;;;;;41.60;23.00;;;;;;;1.42;100.00;99760.92;1658095;86;21203;-50
2021/03/02 06:00:26;;;;;;;41.30;22.63;;;;;;;1.44;100.00;99758.22;1694592;85;21329;-50
2021/03/02 06:02:55;;;;;;;42.07;22.43;;;;;;;1.44;100.00;99750.42;1721771;83;21180;-50
2021/03/02 06:05:25;;;;;;;38.87;21.20;;;;;;;1.48;100.00;99755.21;1677070;85;21320;-50
2021/03/02 06:07:54;;;;;;;37.30;20.30;;;;;;;1.50;100.00;99742.94;1659375;86;21202;-49
2021/03/02 06:10:31;;;;;;;39.63;22.53;;;;;;;1.50;99.84;99746.83;1735469;82;21582;-55
2021/03/02 06:13:01;;;;;;;34.93;18.87;;;;;;;1.47;99.96;99750.16;1710555;82;21154;-50
2021/03/02 06:15:30;;;;;;;35.07;18.70;;;;;;;1.50;100.00;99755.11;1722987;83;21217;-49
2021/03/02 06:18:18;;;;;;;37.57;19.13;;;;;;;1.56;100.00;99743.72;1725075;83;21257;-51
2021/03/02 06:20:52;;;;;;;37.25;19.87;;;;;;;1.63;100.00;99745.33;1692378;83;21347;-50
2021/03/02 06:23:29;;;;;;;37.97;20.30;;;;;;;1.66;99.81;99733.36;1723201;83;21151;-46
2021/03/02 06:26:14;;;;;;;33.20;18.50;;;;;;;1.68;99.52;99731.95;1728214;83;21161;-48
2021/03/02 06:28:47;;;;;;;36.13;19.10;;;;;;;1.69;99.63;99737.48;1669458;85;21309;-49
2021/03/02 06:31:37;;;;;;;36.10;20.90;;;;;;;1.75;99.78;99740.39;1724887;83;21173;-48
2021/03/02 06:34:16;;;;;;;40.23;20.80;;;;;;;1.80;98.99;99736.93;1726001;83;21719;-51
2021/03/02 06:36:59;;;;;;;39.07;21.27;;;;;;;1.79;99.01;99730.56;1725724;83;21217;-51
2021/03/02 06:39:42;;;;;;;39.53;22.03;;;;;;;1.79;99.17;99727.48;1725109;83;21158;-49
2021/03/02 06:42:20;;;;;;;39.53;20.97;;;;;;;1.82;99.31;99729.81;1695962;83;21596;-51
2021/03/02 06:44:54;;;;;;;40.80;21.87;;;;;;;1.84;99.02;99731.83;1725792;83;21687;-50
2021/03/02 06:47:38;;;;;;;41.30;21.03;;;;;;;1.79;98.82;99734.47;1726102;83;21198;-49
2021/03/02 06:50:16;;;;;;;39.90;20.97;;;;;;;1.75;98.77;99731.77;1682231;84;21171;-50
2021/03/02 06:52:45;;;;;;;38.10;20.83;;;;;;;1.72;99.19;99732.02;1713893;83;21263;-50
2021/03/02 06:55:22;;;;;;;37.63;19.43;;;;;;;1.70;99.61;99724.83;1717800;83;21179;-51
2021/03/02 06:57:52;;;;;;;41.60;21.97;;;;;;;1.75;99.43;99714.88;1726111;83;21226;-51
2021/03/02 07:00:32;;;;;;;46.67;24.37;;;;;;;1.76;99.82;99708.72;1711680;83;21592;-51
2021/03/02 07:03:01;;;;;;;42.93;23.23;;;;;;;1.83;99.63;99696.83;1705358;84;21749;-50
2021/03/02 07:05:32;;;;;;;42.63;22.47;;;;;;;1.85;99.27;99697.06;1712143;83;21218;-52
2021/03/02 07:08:01;;;;;;;41.53;21.97;;;;;;;1.90;99.18;99704.48;1650157;85;21527;-49
2021/03/02 07:10:31;;;;;;;42.80;23.10;;;;;;;1.92;99.38;99692.16;1686582;84;21303;-54
2021/03/02 07:13:00;;;;;;;45.83;24.37;;;;;;;1.97;98.85;99698.27;1708242;82;21175;-51
2021/03/02 07:15:30;;;;;;;42.43;23.07;;;;;;;2.03;98.87;99696.44;1700276;83;21287;-53
2021/03/02 07:18:02;;;;;;;41.80;22.90;;;;;;;2.13;98.19;99693.39;1671219;84;21241;-49
2021/03/02 07:20:31;;;;;;;42.80;24.35;;;;;;;2.16;97.15;99697.48;1708841;84;21339;-50
2021/03/02 07:23:01;;;;;;;42.80;24.33;;;;;;;2.11;96.69;99706.98;1712645;83;21222;-50
2021/03/02 07:25:32;;;;;;;42.10;23.50;;;;;;;2.08;96.80;99720.27;1711219;83;21672;-50
2021/03/02 07:28:01;;;;;;;45.20;24.27;;;;;;;2.03;96.88;99724.56;1690639;84;21312;-52
2021/03/02 07:30:30;;;;;;;43.70;23.70;;;;;;;2.01;97.10;99732.16;1690600;82;21295;-51
2021/03/02 07:33:01;;;;;;;44.87;23.53;;;;;;;1.99;97.32;99728.38;1682645;85;21803;-53
2021/03/02 07:35:30;;;;;;;;;;;;;;;2.02;97.62;99724.22;1669573;84;21222;-51
2021/03/02 07:38:19;;;;;;;41.80;23.57;;;;;;;2.06;97.41;99713.88;1698539;84;20276;-51
2021/03/02 07:40:53;;;;;;;47.97;25.03;;;;;;;2.06;97.16;99728.19;1710318;84;21276;-52
2021/03/02 07:43:37;;;;;;;45.23;23.37;;;;;;;2.07;96.85;99713.43;1717405;83;21689;-50
2021/03/02 07:46:40;;;;;;;45.53;24.33;;;;;;;2.02;96.38;99720.80;1715563;83;21195;-50
2021/03/02 07:49:28;;;;;;;49.03;27.03;;;;;;;1.94;97.12;99731.84;1704874;84;21266;-50
2021/03/02 07:52:03;;;;;;;45.97;24.20;;;;;;;1.89;98.03;99724.08;1689999;83;21230;-50
2021/03/02 07:54:33;;;;;;;47.50;25.73;;;;;;;1.92;98.12;99717.34;1696727;83;21288;-52
2021/03/02 07:57:19;;;;;;;43.27;23.73;;;;;;;1.90;98.30;99733.56;1720838;83;21217;-53
2021/03/02 08:00:21;;;;;;;49.60;26.03;;;;;;;1.91;98.74;99723.02;1701328;84;21221;-49
2021/03/02 08:03:21;;;;;;;44.93;25.27;;;;;;;1.93;98.85;99717.67;1704047;83;21736;-51
2021/03/02 08:05:52;;;;;;;46.07;24.67;;;;;;;1.97;98.94;99709.97;1709009;83;21320;-49
2021/03/02 08:08:29;;;;;;;48.20;25.70;;;;;;;2.05;98.55;99704.44;1710234;83;21203;-51
2021/03/02 08:11:01;;;;;;;44.80;25.10;;;;;;;2.09;98.28;99694.13;1709596;84;21350;-49
2021/03/02 08:13:38;;;;;;;41.30;24.03;;;;;;;2.15;98.05;99688.86;1675944;84;22233;-48
2021/03/02 08:16:10;;;;;;;46.83;26.40;;;;;;;2.24;97.54;99702.87;1677332;84;21180;-50
2021/03/02 08:18:42;;;;;;;45.43;25.47;;;;;;;2.28;96.79;99695.12;1682934;85;21609;-51
2021/03/02 08:21:15;;;;;;;45.38;26.30;;;;;;;2.33;96.87;99694.23;1697999;84;21201;-49
2021/03/02 08:23:59;;;;;;;47.17;25.87;;;;;;;2.43;97.06;99689.06;1691105;85;21620;-50
2021/03/02 08:26:32;;;;;;;48.03;26.27;;;;;;;2.50;96.51;99682.34;1694267;83;21202;-51
2021/03/02 08:29:16;;;;;;;46.67;25.13;;;;;;;2.57;95.73;99685.56;1685864;85;21191;-50
2021/03/02 08:31:50;;;;;;;44.77;24.70;;;;;;;2.58;95.40;99680.72;1691972;83;21510;-54
2021/03/02 08:34:20;;;;;;;49.33;27.33;;;;;;;2.58;94.73;99679.42;1693583;84;21327;-54
2021/03/02 08:36:52;;;;;;;47.70;27.50;;;;;;;2.56;94.64;99681.80;1691349;85;21169;-52
2021/03/02 08:39:21;;;;;;;53.28;30.32;;;;;;;2.57;95.08;99682.14;1691470;85;21744;-51
2021/03/02 08:41:50;;;;;;;50.87;30.13;;;;;;;2.51;94.71;99677.00;1698168;84;21307;-50
2021/03/02 08:44:30;;;;;;;52.43;29.43;;;;;;;2.48;95.32;99686.39;1711558;83;21183;-53
2021/03/02 08:47:01;;;;;;;48.87;27.57;;;;;;;2.49;95.68;99680.22;1682581;85;21166;-56
2021/03/02 08:49:30;;;;;;;;;;;;;;;2.57;95.81;99682.95;1708459;83;21164;-51
2021/03/02 08:52:02;;;;;;;48.90;25.20;;;;;;;2.61;94.39;99675.23;1696074;84;20168;-50
2021/03/02 08:54:32;;;;;;;53.53;27.70;;;;;;;2.56;93.26;99660.98;1664271;85;21202;-49
2021/03/02 08:57:05;;;;;;;51.73;27.83;;;;;;;2.45;93.28;99684.53;1710797;83;21140;-54
2021/03/02 08:59:34;;;;;;;55.30;29.97;;;;;;;2.30;94.20;99681.03;1712163;84;21338;-49
2021/03/02 09:02:04;;;;;;;53.83;29.57;;;;;;;2.23;95.46;99663.47;1712291;84;21172;-52
2021/03/02 09:04:33;;;;;;;61.40;31.53;;;;;;;2.18;95.70;99677.36;1711666;84;21222;-50
2021/03/02 09:07:04;;;;;;;51.57;26.37;;;;;;;2.11;96.34;99684.88;1681453;85;21175;-50
2021/03/02 09:09:34;;;;;;;53.35;28.25;;;;;;;2.07;96.86;99672.64;1681837;85;21181;-53
2021/03/02 09:12:05;;;;;;;59.57;31.53;;;;;;;2.09;96.62;99677.22;1710281;84;21694;-50
2021/03/02 09:14:34;;;;;;;59.53;30.55;;;;;;;2.08;97.14;99672.98;1710488;84;21141;-51
2021/03/02 09:17:06;;;;;;;53.03;28.80;;;;;;;2.16;97.84;99676.68;1711857;83;21363;-53
2021/03/02 09:19:41;;;;;;;56.23;30.57;;;;;;;2.24;95.78;99669.05;1711675;83;21544;-50
2021/03/02 09:22:20;;;;;;;57.27;30.73;;;;;;;2.20;94.93;99677.58;1712526;84;21326;-50
2021/03/02 09:24:56;;;;;;;57.57;29.90;;;;;;;2.14;95.64;99665.12;1711750;84;21236;-54
2021/03/02 09:27:33;;;;;;;59.27;29.80;;;;;;;2.09;95.61;99658.19;1712104;84;21197;-52
2021/03/02 09:30:06;;;;;;;62.70;30.47;;;;;;;2.00;95.99;99668.08;1711842;84;21180;-50
2021/03/02 09:32:35;;;;;;;62.17;31.93;;;;;;;1.95;96.54;99674.16;1716808;83;21304;-50
2021/03/02 09:35:08;;;;;;;65.73;33.60;;;;;;;1.98;97.46;99685.60;1689950;85;21109;-50
2021/03/02 09:37:38;;;;;;;63.73;32.27;;;;;;;2.08;97.94;99678.17;1682888;85;21170;-53
2021/03/02 09:40:10;;;;;;;60.33;30.57;;;;;;;2.22;96.59;99678.75;1671634;85;21210;-51
2021/03/02 09:42:41;;;;;;;66.33;31.68;;;;;;;2.24;94.78;99684.17;1691953;83;21394;-49
2021/03/02 09:48:01;;;;;;;76.00;38.43;;;;;;;2.48;95.27;99664.75;1746673;79;23233;-53
2021/03/02 09:50:38;;;;;;;73.17;37.13;;;;;;;2.52;94.73;99673.91;1696541;84;21358;-53
2021/03/02 09:53:15;;;;;;;56.60;29.10;;;;;;;2.61;94.21;99672.63;1703950;82;21305;-49
2021/03/02 09:55:47;;;;;;;63.20;32.47;;;;;;;2.70;91.70;99672.78;1722587;82;21618;-53
2021/03/02 09:58:21;;;;;;;62.57;32.67;;;;;;;2.66;91.42;99665.71;1720513;82;21195;-51
2021/03/02 10:00:52;;;;;;;70.07;37.77;;;;;;;2.68;92.07;99669.47;1717384;82;21307;-54
2021/03/02 10:03:26;;;;;;;72.20;35.30;;;;;;;2.77;92.31;99655.16;1719163;82;21306;-51
2021/03/02 10:05:57;;;;;;;64.40;34.17;;;;;;;2.87;91.03;99673.39;1698694;83;21346;-54
2021/03/02 10:08:35;;;;;;;73.40;34.65;;;;;;;2.96;90.79;99689.95;1716360;82;21164;-52
2021/03/02 10:11:17;;;;;;;64.37;32.37;;;;;;;3.01;90.30;99679.45;1726050;83;21302;-50
2021/03/02 10:13:56;;;;;;;63.63;32.40;;;;;;;3.00;89.21;99684.33;1700408;83;21180;-50
2021/03/02 10:16:31;;;;;;;61.33;31.20;;;;;;;3.02;88.83;99671.98;1722676;82;21256;-48
2021/03/02 10:19:22;;;;;;;67.80;34.80;;;;;;;2.97;88.77;99668.97;1721771;83;21284;-50
2021/03/02 10:21:54;;;;;;;54.30;28.57;;;;;;;2.86;89.39;99672.53;1721813;82;21166;-53
2021/03/02 10:24:28;;;;;;;59.30;30.67;;;;;;;2.86;89.23;99648.28;1721832;83;21305;-47
2021/03/02 10:26:59;;;;;;;58.38;31.50;;;;;;;2.82;88.98;99672.98;1723513;82;21568;-49
2021/03/02 10:29:30;;;;;;;58.80;30.52;;;;;;;2.80;89.55;99654.87;1726081;83;21188;-49
2021/03/02 10:34:41;;;;;;;55.03;30.43;;;;;;;3.09;88.37;99630.07;1750326;79;23191;-50
2021/03/02 10:37:11;;;;;;;53.00;28.40;;;;;;;3.09;87.72;99640.49;1708521;84;21188;-50
2021/03/02 10:39:41;;;;;;;56.33;29.33;;;;;;;3.16;87.83;99620.75;1708364;84;21911;-48
2021/03/02 10:42:16;;;;;;;53.85;28.87;;;;;;;3.30;87.69;99635.10;1708060;84;21189;-56
2021/03/02 10:44:48;;;;;;;60.25;32.25;;;;;;;3.44;86.58;99632.05;1714055;82;21361;-52
2021/03/02 10:47:17;;;;;;;61.77;31.17;;;;;;;3.54;86.15;99616.84;1729661;82;21173;-47
2021/03/02 10:49:48;;;;;;;60.90;33.02;;;;;;;3.69;85.56;99609.70;1710746;83;21143;-48
2021/03/02 10:52:22;;;;;;;58.78;32.67;;;;;;;3.75;84.96;99621.83;1711345;82;21189;-51
2021/03/02 10:54:49;;;;;;;55.17;30.57;;;;;;;3.87;84.84;99618.87;1726264;83;21196;-45
2021/03/02 10:57:18;;;;;;;59.35;31.25;;;;;;;3.96;82.89;99623.22;1671727;84;21174;-49
2021/03/02 10:59:50;;;;;;;55.75;31.33;;;;;;;3.96;83.21;99609.36;1708844;84;21163;-47
2021/03/02 11:02:20;;;;;;;55.80;29.82;;;;;;;4.03;83.58;99614.80;1709120;84;21188;-49
2021/03/02 11:04:50;;;;;;;59.25;30.65;;;;;;;4.10;81.70;99611.45;1709423;84;21293;-47
2021/03/02 11:07:22;;;;;;;56.40;30.02;;;;;;;4.03;81.46;99586.92;1708790;84;21168;-52
2021/03/02 11:09:52;;;;;;;60.73;32.42;;;;;;;4.00;80.33;99609.38;1740969;82;21193;-46
2021/03/02 11:12:23;;;;;;;59.65;31.33;;;;;;;3.92;81.56;99610.13;1729516;82;21205;-51
2021/03/02 11:14:53;;;;;;;59.60;32.03;;;;;;;3.97;81.89;99607.08;1756139;82;21205;-50
2021/03/02 11:17:23;;;;;;;58.85;31.93;;;;;;;4.06;81.79;99606.66;1756261;81;21154;-53
2021/03/02 11:19:57;;;;;;;61.45;32.50;;;;;;;4.13;81.72;99603.80;1756306;82;21745;-51
2021/03/02 11:22:27;;;;;;;59.13;32.50;;;;;;;4.22;80.89;99597.21;1728780;81;21619;-52
2021/03/02 11:24:56;;;;;;;57.85;31.90;;;;;;;4.28;81.24;99598.41;1726399;83;21165;-48
2021/03/02 11:27:25;;;;;;;54.80;31.15;;;;;;;4.40;79.75;99582.03;1725870;83;21306;-52
2021/03/02 11:29:54;;;;;;;58.00;31.77;;;;;;;4.39;79.94;99587.73;1726185;83;21672;-48
2021/03/02 11:32:24;;;;;;;57.98;32.95;;;;;;;4.47;79.62;99576.08;1726087;82;21604;-49
2021/03/02 11:34:53;;;;;;;60.20;31.75;;;;;;;4.56;79.51;99580.05;1752366;81;21159;-50
2021/03/02 11:37:22;;;;;;;57.38;31.65;;;;;;;4.61;79.44;99559.52;1762494;81;21209;-47
2021/03/02 11:39:52;;;;;;;61.60;35.10;;;;;;;4.65;79.16;99565.60;1762383;81;21192;-50
2021/03/02 11:42:21;;;;;;;57.03;29.65;;;;;;;4.69;78.86;99560.39;1762366;81;21165;-49
2021/03/02 11:44:51;;;;;;;63.15;34.23;;;;;;;4.68;76.21;99548.30;1757077;81;21156;-50
2021/03/02 11:47:20;;;;;;;58.60;33.28;;;;;;;4.47;77.37;99558.26;1731373;83;21136;-48
2021/03/02 11:49:51;;;;;;;59.33;31.77;;;;;;;4.42;78.99;99562.66;1707016;83;21218;-54
2021/03/02 11:52:22;;;;;;;59.50;31.02;;;;;;;4.53;79.07;99566.82;1701733;84;21239;-49
2021/03/02 11:54:53;;;;;;;59.23;31.05;;;;;;;4.62;78.59;99563.77;1713610;83;21138;-48
2021/03/02 11:57:22;;;;;;;61.02;31.40;;;;;;;4.69;77.91;99570.83;1725143;81;21203;-52
2021/03/02 11:59:53;;;;;;;59.67;30.68;;;;;;;4.73;77.92;99560.91;1725806;83;21207;-52
2021/03/02 12:02:25;;;;;;;59.05;31.23;;;;;;;4.76;77.75;99560.63;1721258;83;21195;-53
2021/03/02 12:04:57;;;;;;;57.08;31.27;;;;;;;4.76;77.35;99556.22;1725227;83;21157;-47
2021/03/02 12:07:31;;;;;;;61.83;32.23;;;;;;;4.72;76.73;99533.98;1738155;81;21160;-47
2021/03/02 12:10:09;;;;;;;62.00;33.53;;;;;;;4.61;76.54;99539.45;1670760;84;21692;-50
2021/03/02 12:12:44;;;;;;;57.78;31.87;;;;;;;4.59;77.75;99541.86;1658515;86;21255;-49
2021/03/02 12:15:17;;;;;;;60.88;32.48;;;;;;;4.61;76.73;99521.17;1630343;84;21170;-47
2021/03/02 12:17:49;;;;;;;57.80;31.33;;;;;;;4.50;77.00;99505.75;1688732;83;21670;-45
2021/03/02 12:20:25;;;;;;;56.45;29.18;;;;;;;4.35;76.25;99544.63;1686080;82;21196;-59
2021/03/02 12:22:54;;;;;;;55.98;30.77;;;;;;;4.22;76.98;99526.75;1707854;82;21280;-51
2021/03/02 12:25:26;;;;;;;57.20;31.42;;;;;;;4.15;77.57;99517.07;1711195;84;21202;-50
2021/03/02 12:27:58;;;;;;;58.68;33.05;;;;;;;4.06;78.84;99507.52;1711719;84;21178;-48
2021/03/02 12:30:29;;;;;;;61.37;33.23;;;;;;;4.11;78.86;99524.37;1711751;84;21218;-48
2021/03/02 12:32:58;;;;;;;62.30;34.33;;;;;;;4.23;79.36;99523.65;1707819;82;21212;-49
2021/03/02 12:35:30;;;;;;;59.27;32.17;;;;;;;4.33;80.18;99519.66;1699939;82;21236;-48
2021/03/02 12:38:01;;;;;;;53.33;30.00;;;;;;;4.37;80.15;99523.61;1677621;84;21211;-50
2021/03/02 12:40:30;;;;;;;59.60;32.98;;;;;;;4.44;79.97;99495.44;1640048;85;21241;-51
2021/03/02 12:42:59;;;;;;;57.33;32.70;;;;;;;4.47;79.28;99499.52;1695297;84;21643;-50
2021/03/02 12:45:29;;;;;;;62.38;33.15;;;;;;;4.53;78.55;99500.23;1715737;82;21190;-48
2021/03/02 12:48:03;;;;;;;58.05;31.15;;;;;;;4.58;78.54;99507.59;1744516;82;21174;-50
2021/03/02 12:50:37;;;;;;;59.75;32.40;;;;;;;4.48;78.75;99499.39;1749625;81;21189;-49
2021/03/02 12:53:07;;;;;;;63.10;33.65;;;;;;;4.48;79.26;99505.91;1715647;83;21167;-48
2021/03/02 12:55:40;;;;;;;60.48;32.90;;;;;;;4.55;78.85;99496.16;1715455;82;21231;-46
2021/03/02 12:58:10;;;;;;;60.92;32.48;;;;;;;4.56;79.18;99496.48;1697580;82;21126;-48
2021/03/02 13:00:40;;;;;;;61.60;34.10;;;;;;;4.47;79.06;99509.95;1686437;84;21221;-47
2021/03/02 13:03:13;;;;;;;60.17;32.38;;;;;;;4.40;80.01;99494.09;1709661;84;21174;-48
2021/03/02 13:05:45;;;;;;;61.65;32.17;;;;;;;4.47;80.14;99499.52;1716026;83;21233;-48
2021/03/02 13:08:15;;;;;;;61.58;33.00;;;;;;;4.56;79.83;99495.19;1716107;83;21206;-51
2021/03/02 13:10:45;;;;;;;59.35;32.53;;;;;;;4.66;79.45;99505.05;1739627;82;21205;-48
2021/03/02 13:13:15;;;;;;;63.58;35.33;;;;;;;4.71;78.56;99508.02;1700022;83;21295;-49
2021/03/02 13:15:45;;;;;;;60.78;33.63;;;;;;;4.67;78.42;99515.33;1718509;82;21202;-50
2021/03/02 13:18:14;;;;;;;64.45;35.83;;;;;;;4.69;79.07;99511.25;1688664;85;21223;-55
2021/03/02 13:20:49;;;;;;;66.55;35.33;;;;;;;4.73;78.42;99521.73;1692385;83;21147;-53
2021/03/02 13:23:20;;;;;;;59.53;34.27;;;;;;;4.64;78.31;99506.97;1732943;82;21623;-49
2021/03/02 13:25:49;;;;;;;61.98;33.10;;;;;;;4.49;79.37;99494.49;1696055;83;21692;-49
2021/03/02 13:28:22;;;;;;;61.88;35.25;;;;;;;4.48;79.56;99489.43;1715993;83;21178;-49
2021/03/02 13:31:03;;;;;;;64.12;35.63;;;;;;;4.41;79.37;99493.11;1689680;83;21271;-49
2021/03/02 13:33:33;;;;;;;62.08;34.53;;;;;;;4.34;80.30;99497.80;1714931;81;21172;-53
2021/03/02 13:36:05;;;;;;;64.92;34.48;;;;;;;4.34;80.37;99510.85;1707009;83;21140;-49
2021/03/02 13:38:35;;;;;;;68.30;36.53;;;;;;;4.28;80.97;99502.33;1728854;83;21149;-47
2021/03/02 13:41:08;;;;;;;63.33;34.88;;;;;;;4.19;81.65;99512.71;1729112;83;21162;-47
2021/03/02 13:43:42;;;;;;;65.70;35.65;;;;;;;4.13;82.16;99488.98;1699693;83;21165;-50
2021/03/02 13:46:13;;;;;;;62.27;34.18;;;;;;;4.04;82.95;99481.59;1742484;81;21161;-47
2021/03/02 13:48:44;;;;;;;64.58;34.98;;;;;;;4.02;83.50;99503.59;1701236;84;21151;-51
2021/03/02 13:51:13;;;;;;;62.10;34.27;;;;;;;4.04;83.66;99494.63;1727738;81;21608;-50
2021/03/02 13:53:44;;;;;;;65.90;36.20;;;;;;;4.05;83.50;99487.62;1736144;81;21593;-49
2021/03/02 13:56:16;;;;;;;;;;;;;;;3.98;83.57;99499.14;1749506;81;21531;-51
2021/03/02 13:58:48;;;;;;;69.00;36.13;;;;;;;3.91;84.26;99495.50;1682340;84;20277;-53
2021/03/02 14:01:17;;;;;;;64.17;34.47;;;;;;;3.89;85.24;99481.77;1713038;84;21158;-55
2021/03/02 14:03:47;;;;;;;63.23;34.25;;;;;;;3.87;85.10;99473.29;1712718;84;21638;-51
2021/03/02 14:06:20;;;;;;;63.65;34.15;;;;;;;3.88;85.73;99480.14;1711900;84;21182;-53
2021/03/02 14:08:52;;;;;;;73.57;35.90;;;;;;;3.89;85.79;99486.50;1692672;84;21215;-54
2021/03/02 14:11:28;;;;;;;66.12;35.73;;;;;;;3.91;85.48;99486.38;1659172;83;21217;-51
2021/03/02 14:13:58;;;;;;;67.27;34.77;;;;;;;3.90;85.30;99485.56;1739901;82;21186;-48
2021/03/02 14:16:28;;;;;;;68.23;37.70;;;;;;;3.89;85.39;99483.89;1684778;84;21185;-49
2021/03/02 14:18:57;;;;;;;73.20;37.20;;;;;;;3.84;85.18;99482.25;1680206;85;21172;-49
2021/03/02 14:21:27;;;;;;;69.27;36.67;;;;;;;3.77;86.15;99486.39;1681194;85;21609;-51
2021/03/02 14:24:05;;;;;;;69.87;36.43;;;;;;;3.76;86.90;99491.77;1664985;84;21344;-50
2021/03/02 14:26:35;;;;;;;66.25;35.17;;;;;;;3.77;87.01;99482.48;1672613;84;21217;-53
2021/03/02 14:29:05;;;;;;;67.73;37.00;;;;;;;3.76;85.84;99486.06;1684520;84;21650;-54
2021/03/02 14:31:38;;;;;;;71.95;39.18;;;;;;;3.73;85.70;99469.42;1684159;85;21201;-51
2021/03/02 14:34:08;;;;;;;;;;;;;;;3.69;85.53;99487.63;1674583;84;21646;-50
2021/03/02 14:36:43;;;;;;;73.40;39.47;;;;;;;3.61;86.27;99485.77;1704703;84;20189;-49
2021/03/02 14:39:14;;;;;;;68.07;36.50;;;;;;;3.55;86.17;99479.81;1709657;83;22067;-49
2021/03/02 14:41:45;;;;;;;;;;;;;;;3.48;86.80;99474.86;1712478;83;21642;-50
2021/03/02 14:44:16;;;;;;;69.73;37.37;;;;;;;3.46;87.34;99453.34;1709845;84;20244;-50
2021/03/02 14:46:47;;;;;;;;;;;;;;;3.42;87.64;99455.42;1709963;82;21224;-51
2021/03/02 14:49:33;;;;;;;74.60;37.90;;;;;;;3.42;87.88;99451.51;1714390;83;20313;-50
2021/03/02 14:52:03;;;;;;;74.27;38.00;;;;;;;3.41;88.07;99437.33;1715175;84;21209;-55
2021/03/02 14:54:34;;;;;;;;;;;;;;;3.36;88.60;99448.19;1717669;84;21217;-59
2021/03/02 14:57:04;;;;;;;71.63;37.90;;;;;;;3.34;89.12;99455.83;1715273;84;20263;-53
2021/03/02 14:59:35;;;;;;;68.90;37.60;;;;;;;3.31;89.46;99441.30;1715723;82;21311;-58
2021/03/02 15:02:06;;;;;;;73.02;40.30;;;;;;;3.28;89.81;99438.18;1716299;83;21461;-51
